TimeEDT,TemperatureF,Dew PointF,Humidity,Sea Level PressureIn,VisibilityMPH,Wind Direction,Wind SpeedMPH,Gust SpeedMPH,PrecipitationIn,Events,Conditions,WindDirDegrees,DateUTC
12:15 AM,78.8,71.6,78,30.17,10.0,ESE,5.8,-,N/A,,Clear,110,2013-07-30 04:15:00
12:35 AM,77.0,71.6,83,30.17,10.0,Calm,Calm,-,N/A,,Clear,0,2013-07-30 04:35:00
12:55 AM,77.0,71.6,83,30.17,10.0,East,3.5,-,N/A,,Clear,100,2013-07-30 04:55:00
1:15 AM,77.0,71.6,83,30.17,10.0,Calm,Calm,-,N/A,,Clear,0,2013-07-30 05:15:00
1:35 AM,77.0,71.6,83,30.16,10.0,Calm,Calm,-,N/A,,Clear,0,2013-07-30 05:35:00
1:55 AM,77.0,71.6,83,30.15,10.0,East,4.6,-,N/A,,Clear,100,2013-07-30 05:55:00
2:15 AM,77.0,71.6,83,30.15,10.0,East,4.6,-,N/A,,Clear,90,2013-07-30 06:15:00
2:35 AM,77.0,71.6,83,30.15,10.0,ENE,3.5,-,N/A,,Clear,70,2013-07-30 06:35:00
2:55 AM,77.0,71.6,83,30.14,10.0,ENE,4.6,-,N/A,,Clear,70,2013-07-30 06:55:00
3:15 AM,77.0,71.6,83,30.14,10.0,East,4.6,-,N/A,,Clear,80,2013-07-30 07:15:00
3:35 AM,77.0,71.6,83,30.13,10.0,Calm,Calm,-,N/A,,Clear,0,2013-07-30 07:35:00
3:55 AM,75.2,71.6,89,30.13,10.0,ENE,4.6,-,N/A,,Clear,60,2013-07-30 07:55:00
4:15 AM,75.2,71.6,89,30.13,10.0,ENE,3.5,-,N/A,,Clear,70,2013-07-30 08:15:00
4:35 AM,77.0,71.6,83,30.13,10.0,ENE,3.5,-,N/A,,Clear,70,2013-07-30 08:35:00
4:55 AM,77.0,71.6,83,30.13,10.0,ENE,4.6,-,N/A,,Clear,70,2013-07-30 08:55:00
5:15 AM,77.0,71.6,83,30.12,10.0,East,3.5,-,N/A,,Clear,100,2013-07-30 09:15:00
5:35 AM,77.0,71.6,83,30.13,10.0,East,3.5,-,N/A,,Clear,100,2013-07-30 09:35:00
5:55 AM,75.2,71.6,89,30.14,10.0,Calm,Calm,-,N/A,,Clear,0,2013-07-30 09:55:00
6:15 AM,75.2,71.6,89,30.14,10.0,Calm,Calm,-,N/A,,Clear,0,2013-07-30 10:15:00
6:35 AM,75.2,71.6,89,30.14,10.0,Calm,Calm,-,N/A,,Clear,0,2013-07-30 10:35:00
6:55 AM,75.2,71.6,89,30.15,10.0,East,4.6,-,N/A,,Clear,80,2013-07-30 10:55:00
7:15 AM,77.0,71.6,83,30.16,10.0,ENE,4.6,-,N/A,,Clear,70,2013-07-30 11:15:00
7:35 AM,77.0,71.6,83,30.17,10.0,East,4.6,-,N/A,,Clear,80,2013-07-30 11:35:00
7:55 AM,78.8,71.6,78,30.17,10.0,ENE,4.6,-,N/A,,Clear,70,2013-07-30 11:55:00
8:15 AM,78.8,71.6,78,30.17,10.0,East,3.5,-,N/A,,Clear,80,2013-07-30 12:15:00
8:35 AM,80.6,73.4,79,30.17,10.0,ENE,3.5,-,N/A,,Clear,70,2013-07-30 12:35:00
8:55 AM,80.6,73.4,79,30.18,10.0,ESE,4.6,-,N/A,,Clear,110,2013-07-30 12:55:00
9:15 AM,80.6,73.4,79,30.18,10.0,Calm,Calm,-,N/A,,Clear,0,2013-07-30 13:15:00
9:35 AM,82.4,73.4,74,30.18,10.0,SE,3.5,-,N/A,,Clear,140,2013-07-30 13:35:00
9:55 AM,82.4,73.4,74,30.18,10.0,Calm,Calm,-,N/A,,Clear,0,2013-07-30 13:55:00
10:15 AM,84.2,73.4,70,30.19,10.0,South,3.5,-,N/A,,Clear,170,2013-07-30 14:15:00
10:35 AM,84.2,73.4,70,30.19,10.0,Calm,Calm,-,N/A,,Clear,0,2013-07-30 14:35:00
10:55 AM,86.0,71.6,62,30.19,10.0,Calm,Calm,-,N/A,,Clear,0,2013-07-30 14:55:00
11:15 AM,87.8,71.6,58,30.19,10.0,Calm,Calm,-,N/A,,Clear,0,2013-07-30 15:15:00
11:35 AM,87.8,69.8,55,30.19,10.0,Calm,Calm,-,N/A,,Clear,0,2013-07-30 15:35:00
11:55 AM,89.6,71.6,55,30.18,10.0,NE,4.6,-,N/A,,Scattered Clouds,40,2013-07-30 15:55:00
12:15 PM,89.6,71.6,55,30.18,10.0,SSE,4.6,-,N/A,,Clear,160,2013-07-30 16:15:00
12:55 PM,89.6,71.6,55,30.17,10.0,South,4.6,-,N/A,,Scattered Clouds,170,2013-07-30 16:55:00
1:15 PM,89.6,71.6,55,30.16,10.0,Calm,Calm,-,N/A,,Scattered Clouds,0,2013-07-30 17:15:00
1:35 PM,89.6,71.6,55,30.15,10.0,South,4.6,-,N/A,,Scattered Clouds,170,2013-07-30 17:35:00
2:15 PM,91.4,71.6,52,30.14,10.0,SSW,4.6,-,N/A,,Scattered Clouds,200,2013-07-30 18:15:00
2:35 PM,89.6,69.8,52,30.13,10.0,SSW,3.5,-,N/A,,Scattered Clouds,200,2013-07-30 18:35:00
2:55 PM,91.4,69.8,49,30.13,10.0,Calm,Calm,-,N/A,,Mostly Cloudy,0,2013-07-30 18:55:00
3:15 PM,91.4,69.8,49,30.12,10.0,ESE,4.6,-,N/A,,Mostly Cloudy,120,2013-07-30 19:15:00
3:35 PM,91.4,69.8,49,30.11,10.0,ESE,5.8,-,N/A,,Scattered Clouds,110,2013-07-30 19:35:00
3:55 PM,93.2,68.0,44,30.10,10.0,East,5.8,-,N/A,,Clear,100,2013-07-30 19:55:00
4:15 PM,93.2,69.8,46,30.09,10.0,ESE,3.5,-,N/A,,Scattered Clouds,120,2013-07-30 20:15:00
4:35 PM,91.4,68.0,46,30.08,10.0,East,3.5,-,N/A,,Scattered Clouds,100,2013-07-30 20:35:00
4:55 PM,95.0,66.2,39,30.08,10.0,Calm,Calm,-,N/A,,Scattered Clouds,0,2013-07-30 20:55:00
5:15 PM,91.4,66.2,43,30.08,10.0,ENE,5.8,-,N/A,,Scattered Clouds,60,2013-07-30 21:15:00
5:35 PM,93.2,64.4,38,30.08,10.0,ENE,3.5,-,N/A,,Clear,70,2013-07-30 21:35:00
5:55 PM,91.4,68.0,46,30.08,10.0,Calm,Calm,-,N/A,,Scattered Clouds,0,2013-07-30 21:55:00
6:15 PM,91.4,68.0,46,30.08,10.0,SE,8.1,-,N/A,,Mostly Cloudy,140,2013-07-30 22:15:00
6:35 PM,89.6,68.0,49,30.09,10.0,SE,12.7,19.6,N/A,,Overcast,130,2013-07-30 22:35:00
6:55 PM,86.0,69.8,58,30.08,10.0,SE,15.0,20.7,N/A,,Mostly Cloudy,140,2013-07-30 22:55:00
7:15 PM,84.2,68.0,58,30.10,10.0,SSE,9.2,-,N/A,Rain,Light Rain,150,2013-07-30 23:15:00
7:35 PM,84.2,69.8,62,30.10,10.0,ESE,4.6,-,N/A,Rain,Light Rain,120,2013-07-30 23:35:00
7:55 PM,80.6,73.4,79,30.12,10.0,West,6.9,-,N/A,Rain,Light Rain,280,2013-07-30 23:55:00
8:15 PM,80.6,73.4,79,30.13,10.0,WNW,6.9,-,N/A,,Scattered Clouds,300,2013-07-31 00:15:00
8:35 PM,78.8,73.4,83,30.13,10.0,WNW,3.5,-,N/A,,Clear,290,2013-07-31 00:35:00
8:55 PM,78.8,73.4,83,30.13,10.0,Calm,Calm,-,N/A,,Clear,0,2013-07-31 00:55:00
9:15 PM,78.8,73.4,83,30.13,10.0,Calm,Calm,-,N/A,,Clear,0,2013-07-31 01:15:00
9:35 PM,78.8,73.4,83,30.12,10.0,Calm,Calm,-,N/A,,Clear,0,2013-07-31 01:35:00
9:55 PM,80.6,73.4,79,30.14,10.0,Calm,Calm,-,N/A,,Clear,0,2013-07-31 01:55:00
10:15 PM,78.8,73.4,83,30.15,10.0,Calm,Calm,-,N/A,,Clear,0,2013-07-31 02:15:00
10:35 PM,78.8,73.4,83,30.15,10.0,Calm,Calm,-,N/A,,Clear,0,2013-07-31 02:35:00
10:55 PM,80.6,73.4,79,30.16,10.0,Calm,Calm,-,N/A,,Clear,0,2013-07-31 02:55:00
11:15 PM,78.8,73.4,83,30.15,10.0,Calm,Calm,-,N/A,,Clear,0,2013-07-31 03:15:00
11:35 PM,78.8,73.4,83,30.15,10.0,Calm,Calm,-,N/A,,Clear,0,2013-07-31 03:35:00
11:55 PM,78.8,73.4,83,30.15,10.0,Calm,Calm,-,N/A,,Clear,0,2013-07-31 03:55:00